createdAt,value
2023-05-10T00:01:52.388Z,8.69
2023-05-10T00:06:59.417Z,8.63
2023-05-10T00:12:07.215Z,8.57
2023-05-10T00:17:14.291Z,8.51
2023-05-10T00:22:21.319Z,8.46
2023-05-10T00:27:28.397Z,8.41
2023-05-10T00:32:35.637Z,8.36
2023-05-10T00:37:42.764Z,8.31
2023-05-10T00:42:49.904Z,8.24
2023-05-10T00:47:57.574Z,8.17
2023-05-10T00:53:05.526Z,8.11
2023-05-10T00:58:13.413Z,8.03
2023-05-10T01:03:20.693Z,7.96
2023-05-10T01:08:29.009Z,7.91
2023-05-10T01:13:40.667Z,7.84
2023-05-10T01:18:48.794Z,7.79
2023-05-10T01:24:41.492Z,7.74
2023-05-10T01:30:24.123Z,7.68
2023-05-10T01:35:42.869Z,7.62
2023-05-10T01:41:04.164Z,7.56
2023-05-10T01:46:18.955Z,7.51
2023-05-10T01:51:30.203Z,7.45
2023-05-10T01:56:39.891Z,7.38
2023-05-10T02:01:49.220Z,7.32
2023-05-10T02:06:59.799Z,7.25
2023-05-10T02:12:09.844Z,7.19
2023-05-10T02:17:18.398Z,7.13
2023-05-10T02:22:28.009Z,7.07
2023-05-10T02:27:35.922Z,7.01
2023-05-10T02:32:42.067Z,6.94
2023-05-10T02:37:50.003Z,6.89
2023-05-10T02:42:59.812Z,6.83
2023-05-10T02:48:07.877Z,6.76
2023-05-10T02:53:17.173Z,6.70
2023-05-10T02:58:24.583Z,6.64
2023-05-10T03:03:31.608Z,6.59
2023-05-10T03:08:38.805Z,6.55
2023-05-10T03:14:10.044Z,6.56
2023-05-10T03:19:24.768Z,6.57
2023-05-10T03:24:33.389Z,6.60
2023-05-10T03:29:43.827Z,6.65
2023-05-10T03:34:51.437Z,6.70
2023-05-10T03:39:58.492Z,6.77
2023-05-10T03:45:05.871Z,6.87
2023-05-10T03:50:14.779Z,7.03
2023-05-10T03:55:23.638Z,7.29
2023-05-10T04:00:31.661Z,7.72
2023-05-10T04:05:38.904Z,8.23
2023-05-10T04:10:45.180Z,8.69
2023-05-10T04:15:52.222Z,9.06
2023-05-10T04:21:01.028Z,9.43
2023-05-10T04:26:08.181Z,9.71
2023-05-10T04:31:15.278Z,9.99
2023-05-10T04:36:22.372Z,10.23
2023-05-10T04:41:29.428Z,10.48
2023-05-10T04:46:36.838Z,10.76
2023-05-10T04:51:43.956Z,10.95
2023-05-10T04:56:51.137Z,11.20
2023-05-10T05:01:58.184Z,11.42
2023-05-10T05:07:05.361Z,11.62
2023-05-10T05:12:15.357Z,11.82
2023-05-10T05:17:22.722Z,12.11
2023-05-10T05:22:32.786Z,12.32
2023-05-10T05:27:40.517Z,12.50
2023-05-10T05:32:48.218Z,12.52
2023-05-10T05:37:53.783Z,12.60
2023-05-10T05:43:00.884Z,12.74
2023-05-10T05:48:08.524Z,12.88
2023-05-10T05:53:15.573Z,13.08
2023-05-10T05:58:22.723Z,13.43
2023-05-10T06:03:29.955Z,13.71
2023-05-10T06:08:37.167Z,13.99
2023-05-10T06:13:44.249Z,14.18
2023-05-10T06:18:51.308Z,14.48
2023-05-10T06:23:58.419Z,14.84
2023-05-10T06:29:06.149Z,15.06
2023-05-10T06:34:13.357Z,15.44
2023-05-10T06:39:20.393Z,15.70
2023-05-10T06:44:27.907Z,15.99
2023-05-10T06:49:34.927Z,16.45
2023-05-10T06:54:42.184Z,16.68
2023-05-10T06:59:49.267Z,16.96
2023-05-10T07:04:56.443Z,17.23
2023-05-10T07:10:03.970Z,17.43
2023-05-10T07:15:11.155Z,17.64
2023-05-10T07:20:18.549Z,17.87
2023-05-10T07:25:24.156Z,18.09
2023-05-10T07:30:31.858Z,18.38
2023-05-10T07:35:39.143Z,18.59
2023-05-10T07:40:46.486Z,18.60
2023-05-10T07:45:56.119Z,18.76
2023-05-10T07:51:03.565Z,19.02
2023-05-10T07:56:26.274Z,18.78
2023-05-10T08:01:35.771Z,18.56
2023-05-10T08:06:43.243Z,18.43
2023-05-10T08:11:51.516Z,18.38
2023-05-10T08:16:58.900Z,18.32
2023-05-10T08:22:06.106Z,18.24
2023-05-10T08:27:13.371Z,18.00
2023-05-10T08:32:20.689Z,17.75
2023-05-10T08:37:28.255Z,17.48
2023-05-10T08:42:39.321Z,17.25
2023-05-10T08:47:46.420Z,17.11
2023-05-10T08:52:58.002Z,17.01
2023-05-10T08:58:05.934Z,16.96
2023-05-10T09:03:13.576Z,17.01
2023-05-10T09:08:19.858Z,17.09
2023-05-10T09:13:27.497Z,17.09
2023-05-10T09:18:34.560Z,17.10
2023-05-10T09:23:46.144Z,17.19
2023-05-10T09:28:57.213Z,17.17
2023-05-10T09:34:04.184Z,17.10
2023-05-10T09:39:11.770Z,17.13
2023-05-10T09:44:21.709Z,17.24
2023-05-10T09:49:29.224Z,17.27
2023-05-10T09:54:37.224Z,17.29
2023-05-10T09:59:46.515Z,17.27
2023-05-10T10:04:55.326Z,17.27
2023-05-10T10:10:02.823Z,17.35
2023-05-10T10:15:09.542Z,17.39
2023-05-10T10:20:17.199Z,17.42
2023-05-10T10:25:25.138Z,17.43
2023-05-10T10:30:39.193Z,17.45
2023-05-10T10:35:47.826Z,17.45
2023-05-10T10:41:10.184Z,17.49
2023-05-10T10:46:19.595Z,17.50
2023-05-10T10:51:30.708Z,17.53
2023-05-10T10:56:37.762Z,17.59
2023-05-10T11:01:46.238Z,17.57
2023-05-10T11:07:13.276Z,17.52
2023-05-10T11:12:20.556Z,17.50
2023-05-10T11:17:30.341Z,17.54
2023-05-10T11:22:53.383Z,17.55
2023-05-10T11:28:04.836Z,17.51
2023-05-10T11:33:16.787Z,17.49
2023-05-10T11:38:23.869Z,17.67
2023-05-10T11:43:31.927Z,17.83
2023-05-10T11:48:40.854Z,17.86
2023-05-10T11:53:47.840Z,17.84
2023-05-10T11:58:58.437Z,17.85
2023-05-10T12:04:06.018Z,17.92
2023-05-10T12:09:12.028Z,18.02
2023-05-10T12:14:20.647Z,18.10
2023-05-10T12:19:28.354Z,18.26
2023-05-10T12:24:35.670Z,18.36
2023-05-10T12:29:46.526Z,18.40
2023-05-10T12:34:56.447Z,18.28
2023-05-10T12:40:03.544Z,18.21
2023-05-10T12:45:12.954Z,18.33
2023-05-10T12:50:20.285Z,18.29
2023-05-10T12:55:27.603Z,18.28
2023-05-10T13:00:33.665Z,18.29
2023-05-10T13:05:40.949Z,18.31
2023-05-10T13:10:48.392Z,18.33
2023-05-10T13:15:59.643Z,18.29
2023-05-10T13:21:08.675Z,18.23
2023-05-10T13:26:16.062Z,18.25
2023-05-10T13:31:25.042Z,18.37
2023-05-10T13:36:32.770Z,18.39
2023-05-10T13:41:40.011Z,18.35
2023-05-10T13:46:47.836Z,18.34
2023-05-10T13:51:55.251Z,18.33
2023-05-10T13:57:02.742Z,18.32
2023-05-10T14:02:10.010Z,18.35
2023-05-10T14:07:17.570Z,18.32
2023-05-10T14:12:25.175Z,18.36
2023-05-10T14:17:32.920Z,18.35
2023-05-10T14:22:41.419Z,18.36
2023-05-10T14:27:49.419Z,18.44
2023-05-10T14:32:59.567Z,18.43
2023-05-10T14:38:07.544Z,18.42
2023-05-10T14:43:15.694Z,18.43
2023-05-10T14:48:27.426Z,18.47
2023-05-10T14:53:34.670Z,18.46
2023-05-10T14:58:42.296Z,18.44
2023-05-10T15:03:49.776Z,18.46
2023-05-10T15:08:57.767Z,18.45
2023-05-10T15:14:10.183Z,18.41
2023-05-10T15:19:17.946Z,18.41
2023-05-10T15:24:24.248Z,18.39
2023-05-10T15:29:32.589Z,18.38
2023-05-10T15:34:41.359Z,18.36
2023-05-10T15:39:49.683Z,18.33
2023-05-10T15:44:59.027Z,18.30
2023-05-10T15:50:08.383Z,18.27
2023-05-10T15:55:17.304Z,18.23
2023-05-10T16:00:29.190Z,18.23
2023-05-10T16:05:35.084Z,18.24
2023-05-10T16:10:46.572Z,18.23
2023-05-10T16:15:55.739Z,18.20
2023-05-10T16:21:04.868Z,18.17
2023-05-10T16:26:12.889Z,18.17
2023-05-10T16:31:20.272Z,18.12
2023-05-10T16:36:31.821Z,18.06
2023-05-10T16:41:41.492Z,18.01
2023-05-10T16:46:49.100Z,17.97
2023-05-10T16:51:59.443Z,17.93
2023-05-10T16:57:07.665Z,17.91
2023-05-10T17:02:16.063Z,17.87
2023-05-10T17:07:26.144Z,17.82
2023-05-10T17:12:34.340Z,17.75
2023-05-10T17:17:40.381Z,17.68
2023-05-10T17:22:47.728Z,17.62
2023-05-10T17:27:55.266Z,17.55
2023-05-10T17:33:04.440Z,17.48
2023-05-10T17:38:12.259Z,17.41
2023-05-10T17:43:22.467Z,17.32
2023-05-10T17:48:30.766Z,17.23
2023-05-10T17:53:38.450Z,17.14
2023-05-10T17:58:45.919Z,17.02
2023-05-10T18:03:53.407Z,16.90
2023-05-10T18:09:01.018Z,16.78
2023-05-10T18:14:16.051Z,16.65
2023-05-10T18:19:28.854Z,16.53
2023-05-10T18:24:39.444Z,16.38
2023-05-10T18:29:47.784Z,16.24
2023-05-10T18:34:55.867Z,16.10
2023-05-10T18:40:13.049Z,15.96
2023-05-10T18:45:21.987Z,15.83
2023-05-10T18:50:29.729Z,15.69
2023-05-10T18:55:37.212Z,15.55
2023-05-10T19:00:44.729Z,15.40
2023-05-10T19:05:52.175Z,15.27
2023-05-10T19:10:59.557Z,15.15
2023-05-10T19:16:16.259Z,15.02
2023-05-10T19:21:26.604Z,14.90
2023-05-10T19:26:36.819Z,14.80
2023-05-10T19:31:54.424Z,14.69
2023-05-10T19:37:02.001Z,14.57
2023-05-10T19:42:10.907Z,14.42
2023-05-10T19:47:18.751Z,14.27
2023-05-10T19:52:26.615Z,14.13
2023-05-10T19:57:32.335Z,14.02
2023-05-10T20:02:39.918Z,13.93
2023-05-10T20:07:47.966Z,13.85
2023-05-10T20:12:58.958Z,13.77
2023-05-10T20:18:07.224Z,13.71
2023-05-10T20:23:15.273Z,13.62
2023-05-10T20:28:26.471Z,13.52
2023-05-10T20:33:34.008Z,13.44
2023-05-10T20:38:42.274Z,13.36
2023-05-10T20:43:49.825Z,13.29
2023-05-10T20:48:57.517Z,13.22
2023-05-10T20:54:05.957Z,13.16
2023-05-10T20:59:19.499Z,13.12
2023-05-10T21:04:29.389Z,13.05
2023-05-10T21:09:36.962Z,12.97
2023-05-10T21:14:46.868Z,12.91
2023-05-10T21:19:57.177Z,12.85
2023-05-10T21:25:06.299Z,12.79
2023-05-10T21:30:14.889Z,12.71
2023-05-10T21:35:23.593Z,12.64
2023-05-10T21:40:31.587Z,12.57
2023-05-10T21:45:39.993Z,12.50
2023-05-10T21:50:48.131Z,12.43
2023-05-10T21:55:56.443Z,12.36
2023-05-10T22:01:07.818Z,12.27
2023-05-10T22:06:15.149Z,12.19
2023-05-10T22:11:24.493Z,12.11
2023-05-10T22:16:32.530Z,12.03
2023-05-10T22:21:41.338Z,11.96
2023-05-10T22:26:49.465Z,11.87
2023-05-10T22:31:57.234Z,11.80
2023-05-10T22:37:06.384Z,11.73
2023-05-10T22:42:13.443Z,11.65
2023-05-10T22:47:20.574Z,11.57
2023-05-10T22:52:27.720Z,11.49
2023-05-10T22:57:34.934Z,11.41
2023-05-10T23:02:43.404Z,11.34
2023-05-10T23:07:53.480Z,11.26
2023-05-10T23:13:00.841Z,11.19
2023-05-10T23:18:09.970Z,11.14
2023-05-10T23:23:17.366Z,11.09
2023-05-10T23:28:24.854Z,11.03
2023-05-10T23:33:32.401Z,10.96
2023-05-10T23:38:41.083Z,10.89
2023-05-10T23:43:48.373Z,10.83
2023-05-10T23:48:55.879Z,10.80
2023-05-10T23:54:03.653Z,10.77
2023-05-10T23:59:11.066Z,10.73
